Hewins, Kansas
Current Conditions -  °F | °C
As of 1:55 AM on Friday 19 Dec 2014 (Local Time) from KIDP Reporting Station
Overcast Overcast  
Wind Chill: 28°   Ceiling: 600
Heat Index: 34°   Visibility: 7mi
Dew Point: 32°   Wind: 7mph
Humidity: 93%   Direction: 340°NNW
Pressure: 30.25"   Gusts: NA
Location:  37.1672°N, 96.399°W
Report Text: KIDP 190755Z AUTO 34006KT 7SM OVC006 01/00 A3025 RMK AO2
Loading
Personal Weather Stations






























Interactive Weather Map New forecast layout! Learn more

10-Day Weather Forecast

Advertisements
Track Severe Weather on mobile